sensor_id;sensor_type;location;lat;lon;timestamp;pressure;altitude;pressure_sealevel;temperature;humidity
69566;BME280;77486;47.192;39.650;2024-03-23T00:53:32;101114.66;;;1.63;82.45
69566;BME280;77486;47.192;39.650;2024-03-23T00:55:59;101112.50;;;1.41;82.46
69566;BME280;77486;47.192;39.650;2024-03-23T00:58:24;101084.94;;;1.26;82.38
69566;BME280;77486;47.192;39.650;2024-03-23T01:00:50;101109.63;;;1.36;82.51
69566;BME280;77486;47.192;39.650;2024-03-23T01:03:16;101122.34;;;1.61;82.70
69566;BME280;77486;47.192;39.650;2024-03-23T01:05:41;101123.75;;;1.56;82.38
69566;BME280;77486;47.192;39.650;2024-03-23T01:08:07;101122.25;;;1.74;82.31
69566;BME280;77486;47.192;39.650;2024-03-23T01:10:32;101120.00;;;1.66;82.50
69566;BME280;77486;47.192;39.650;2024-03-23T01:12:58;101114.13;;;1.68;81.97
69566;BME280;77486;47.192;39.650;2024-03-23T01:15:23;101118.22;;;1.65;82.48
69566;BME280;77486;47.192;39.650;2024-03-23T01:17:49;101115.94;;;1.69;82.21
69566;BME280;77486;47.192;39.650;2024-03-23T01:20:14;101127.72;;;1.51;82.42
69566;BME280;77486;47.192;39.650;2024-03-23T01:22:40;101045.09;;;1.08;82.28
69566;BME280;77486;47.192;39.650;2024-03-23T01:25:06;101130.06;;;1.46;82.39
69566;BME280;77486;47.192;39.650;2024-03-23T01:27:31;101126.53;;;1.46;82.87
69566;BME280;77486;47.192;39.650;2024-03-23T01:29:57;101136.09;;;1.47;82.85
69566;BME280;77486;47.192;39.650;2024-03-23T01:32:22;101129.09;;;1.59;82.48
69566;BME280;77486;47.192;39.650;2024-03-23T01:34:48;101126.28;;;1.69;82.06
69566;BME280;77486;47.192;39.650;2024-03-23T01:37:13;101123.59;;;1.68;82.29
69566;BME280;77486;47.192;39.650;2024-03-23T01:39:39;101117.38;;;1.79;81.21
69566;BME280;77486;47.192;39.650;2024-03-23T01:42:04;101115.00;;;1.69;81.21
69566;BME280;77486;47.192;39.650;2024-03-23T01:44:30;101120.13;;;1.67;81.68
69566;BME280;77486;47.192;39.650;2024-03-23T01:46:56;101121.28;;;1.72;82.10
69566;BME280;77486;47.192;39.650;2024-03-23T01:49:22;101120.63;;;1.62;81.95
69566;BME280;77486;47.192;39.650;2024-03-23T01:51:47;101112.19;;;1.64;81.75
69566;BME280;77486;47.192;39.650;2024-03-23T01:54:13;101102.44;;;1.60;82.92
69566;BME280;77486;47.192;39.650;2024-03-23T01:56:39;101105.03;;;1.60;82.69
69566;BME280;77486;47.192;39.650;2024-03-23T01:59:05;101106.66;;;1.58;82.48
69566;BME280;77486;47.192;39.650;2024-03-23T02:01:31;101094.44;;;1.55;82.97
69566;BME280;77486;47.192;39.650;2024-03-23T02:03:58;101091.16;;;1.58;82.76
69566;BME280;77486;47.192;39.650;2024-03-23T02:06:24;101003.13;;;1.25;82.10
69566;BME280;77486;47.192;39.650;2024-03-23T02:08:50;101087.59;;;1.86;81.90
69566;BME280;77486;47.192;39.650;2024-03-23T02:11:16;101090.34;;;1.74;81.85
69566;BME280;77486;47.192;39.650;2024-03-23T02:13:42;101090.69;;;1.65;81.87
69566;BME280;77486;47.192;39.650;2024-03-23T02:16:07;101087.16;;;1.63;82.25
69566;BME280;77486;47.192;39.650;2024-03-23T02:18:34;101033.91;;;1.22;82.54
69566;BME280;77486;47.192;39.650;2024-03-23T02:20:59;101034.47;;;1.31;82.68
69566;BME280;77486;47.192;39.650;2024-03-23T02:23:25;101087.06;;;1.62;83.09
69566;BME280;77486;47.192;39.650;2024-03-23T02:25:51;101056.75;;;1.44;83.39
69566;BME280;77486;47.192;39.650;2024-03-23T02:28:16;101082.59;;;1.59;83.20
69566;BME280;77486;47.192;39.650;2024-03-23T02:30:42;101079.13;;;1.58;84.16
69566;BME280;77486;47.192;39.650;2024-03-23T02:33:08;101080.66;;;1.55;83.84
69566;BME280;77486;47.192;39.650;2024-03-23T02:35:34;101067.56;;;1.52;84.39
69566;BME280;77486;47.192;39.650;2024-03-23T02:37:59;101080.47;;;1.52;84.36
69566;BME280;77486;47.192;39.650;2024-03-23T02:40:25;101079.41;;;1.63;84.39
69566;BME280;77486;47.192;39.650;2024-03-23T02:42:51;101085.09;;;1.57;84.11
69566;BME280;77486;47.192;39.650;2024-03-23T02:45:17;101081.53;;;1.55;84.02
69566;BME280;77486;47.192;39.650;2024-03-23T02:47:43;101079.84;;;1.56;84.24
69566;BME280;77486;47.192;39.650;2024-03-23T02:50:09;101076.91;;;1.65;83.86
69566;BME280;77486;47.192;39.650;2024-03-23T02:52:35;101074.78;;;1.72;83.71
69566;BME280;77486;47.192;39.650;2024-03-23T02:55:00;101075.31;;;1.67;83.66
69566;BME280;77486;47.192;39.650;2024-03-23T02:57:27;101082.78;;;1.62;83.50
69566;BME280;77486;47.192;39.650;2024-03-23T02:59:53;101049.06;;;1.31;84.82
69566;BME280;77486;47.192;39.650;2024-03-23T03:02:19;101091.31;;;1.46;84.97
69566;BME280;77486;47.192;39.650;2024-03-23T03:04:45;101105.56;;;1.54;85.08
69566;BME280;77486;47.192;39.650;2024-03-23T03:07:10;101104.84;;;1.57;85.42
69566;BME280;77486;47.192;39.650;2024-03-23T03:09:36;101095.38;;;1.43;86.04
69566;BME280;77486;47.192;39.650;2024-03-23T03:12:02;101101.81;;;1.49;85.82
69566;BME280;77486;47.192;39.650;2024-03-23T03:14:28;101096.66;;;1.49;85.96
69566;BME280;77486;47.192;39.650;2024-03-23T03:16:54;101095.97;;;1.52;85.62
69566;BME280;77486;47.192;39.650;2024-03-23T03:19:19;100988.72;;;0.86;86.18
69566;BME280;77486;47.192;39.650;2024-03-23T03:21:45;101108.75;;;1.50;86.18
69566;BME280;77486;47.192;39.650;2024-03-23T03:24:11;101100.03;;;1.48;85.94
69566;BME280;77486;47.192;39.650;2024-03-23T03:26:36;101106.97;;;1.34;86.36
69566;BME280;77486;47.192;39.650;2024-03-23T03:29:02;101115.47;;;1.33;86.67
69566;BME280;77486;47.192;39.650;2024-03-23T03:31:28;101113.19;;;1.38;86.88
69566;BME280;77486;47.192;39.650;2024-03-23T03:33:53;101106.63;;;1.43;86.41
69566;BME280;77486;47.192;39.650;2024-03-23T03:36:19;101116.44;;;1.49;86.06
69566;BME280;77486;47.192;39.650;2024-03-23T03:38:45;101117.50;;;1.52;86.01
69566;BME280;77486;47.192;39.650;2024-03-23T03:41:10;101116.63;;;1.52;86.24
69566;BME280;77486;47.192;39.650;2024-03-23T03:43:36;101123.19;;;1.47;86.49
69566;BME280;77486;47.192;39.650;2024-03-23T03:46:02;101107.50;;;1.44;86.50
69566;BME280;77486;47.192;39.650;2024-03-23T03:48:28;101125.84;;;1.48;86.32
69566;BME280;77486;47.192;39.650;2024-03-23T03:50:54;101080.38;;;1.22;86.19
69566;BME280;77486;47.192;39.650;2024-03-23T03:53:20;101116.69;;;1.53;86.41
69566;BME280;77486;47.192;39.650;2024-03-23T03:55:45;101115.97;;;1.41;86.34
69566;BME280;77486;47.192;39.650;2024-03-23T03:58:11;101115.66;;;1.37;86.35
69566;BME280;77486;47.192;39.650;2024-03-23T04:00:37;101120.41;;;1.44;86.11
69566;BME280;77486;47.192;39.650;2024-03-23T04:03:02;101116.22;;;1.46;86.10
69566;BME280;77486;47.192;39.650;2024-03-23T04:05:28;101121.53;;;1.62;85.75
69566;BME280;77486;47.192;39.650;2024-03-23T04:07:54;101117.50;;;1.52;85.49
69566;BME280;77486;47.192;39.650;2024-03-23T04:10:20;101118.63;;;1.43;86.20
69566;BME280;77486;47.192;39.650;2024-03-23T04:12:47;101088.56;;;1.43;86.05
69566;BME280;77486;47.192;39.650;2024-03-23T04:15:13;101116.91;;;1.71;85.85
69566;BME280;77486;47.192;39.650;2024-03-23T04:17:39;101093.44;;;1.39;85.58
69566;BME280;77486;47.192;39.650;2024-03-23T04:20:06;101120.91;;;1.66;86.19
69566;BME280;77486;47.192;39.650;2024-03-23T04:22:36;101123.41;;;1.79;85.32
69566;BME280;77486;47.192;39.650;2024-03-23T04:25:01;101116.28;;;1.61;84.63
69566;BME280;77486;47.192;39.650;2024-03-23T04:27:35;101123.16;;;1.75;84.14
69566;BME280;77486;47.192;39.650;2024-03-23T04:30:00;101128.22;;;1.73;84.14
69566;BME280;77486;47.192;39.650;2024-03-23T04:32:27;101133.38;;;1.73;84.20
69566;BME280;77486;47.192;39.650;2024-03-23T04:34:53;101135.28;;;1.76;84.01
69566;BME280;77486;47.192;39.650;2024-03-23T04:37:23;101141.41;;;1.63;84.98
69566;BME280;77486;47.192;39.650;2024-03-23T04:39:48;101139.44;;;1.74;84.65
69566;BME280;77486;47.192;39.650;2024-03-23T04:42:17;101137.47;;;1.55;85.06
69566;BME280;77486;47.192;39.650;2024-03-23T04:44:43;101119.06;;;1.35;85.07
69566;BME280;77486;47.192;39.650;2024-03-23T04:47:08;101146.34;;;1.60;85.57
69566;BME280;77486;47.192;39.650;2024-03-23T04:49:34;101144.41;;;1.56;85.25
69566;BME280;77486;47.192;39.650;2024-03-23T04:52:03;101148.34;;;1.64;85.36
69566;BME280;77486;47.192;39.650;2024-03-23T04:54:29;101138.06;;;1.51;85.25
69566;BME280;77486;47.192;39.650;2024-03-23T04:56:54;101152.25;;;1.57;85.53
69566;BME280;77486;47.192;39.650;2024-03-23T04:59:20;101144.09;;;1.51;85.40
69566;BME280;77486;47.192;39.650;2024-03-23T05:01:45;101160.09;;;1.59;86.00
69566;BME280;77486;47.192;39.650;2024-03-23T05:04:11;101150.44;;;1.56;85.42
69566;BME280;77486;47.192;39.650;2024-03-23T05:06:36;101158.56;;;1.63;85.37
69566;BME280;77486;47.192;39.650;2024-03-23T05:09:02;101093.59;;;1.42;85.21
69566;BME280;77486;47.192;39.650;2024-03-23T05:11:37;101159.47;;;1.63;85.80
69566;BME280;77486;47.192;39.650;2024-03-23T05:14:03;101157.63;;;1.75;86.08
69566;BME280;77486;47.192;39.650;2024-03-23T05:16:29;101161.09;;;1.76;85.64
69566;BME280;77486;47.192;39.650;2024-03-23T05:18:55;101166.28;;;1.76;85.43
69566;BME280;77486;47.192;39.650;2024-03-23T05:21:20;101094.81;;;1.33;85.42
69566;BME280;77486;47.192;39.650;2024-03-23T05:23:46;101161.63;;;1.70;85.38
69566;BME280;77486;47.192;39.650;2024-03-23T05:26:11;101165.03;;;1.69;85.96
69566;BME280;77486;47.192;39.650;2024-03-23T05:28:37;101165.63;;;1.80;85.08
69566;BME280;77486;47.192;39.650;2024-03-23T05:31:02;101169.41;;;2.00;84.84
69566;BME280;77486;47.192;39.650;2024-03-23T05:33:28;101173.25;;;1.92;84.05
69566;BME280;77486;47.192;39.650;2024-03-23T05:35:58;101168.72;;;2.02;84.39
69566;BME280;77486;47.192;39.650;2024-03-23T05:38:24;101156.41;;;1.84;84.28
69566;BME280;77486;47.192;39.650;2024-03-23T05:40:54;101107.00;;;1.64;83.84
69566;BME280;77486;47.192;39.650;2024-03-23T05:43:20;101176.56;;;2.04;83.32
69566;BME280;77486;47.192;39.650;2024-03-23T05:45:46;101152.13;;;1.99;83.48
69566;BME280;77486;47.192;39.650;2024-03-23T05:48:11;101165.69;;;1.95;83.83
69566;BME280;77486;47.192;39.650;2024-03-23T05:50:37;101173.69;;;1.85;84.64
69566;BME280;77486;47.192;39.650;2024-03-23T05:53:03;101130.25;;;1.64;84.44
69566;BME280;77486;47.192;39.650;2024-03-23T05:55:30;101126.22;;;1.54;84.36
69566;BME280;77486;47.192;39.650;2024-03-23T05:57:56;101151.47;;;1.73;84.32
69566;BME280;77486;47.192;39.650;2024-03-23T06:00:21;101170.09;;;1.83;84.45
69566;BME280;77486;47.192;39.650;2024-03-23T06:02:47;101178.16;;;1.87;84.22
69566;BME280;77486;47.192;39.650;2024-03-23T06:05:12;101081.16;;;1.34;84.18
69566;BME280;77486;47.192;39.650;2024-03-23T06:07:38;101188.56;;;1.89;84.15
69566;BME280;77486;47.192;39.650;2024-03-23T06:10:05;101189.03;;;1.96;84.52
69566;BME280;77486;47.192;39.650;2024-03-23T06:12:31;101186.03;;;2.03;84.17
69566;BME280;77486;47.192;39.650;2024-03-23T06:14:57;101085.63;;;1.52;84.20
69566;BME280;77486;47.192;39.650;2024-03-23T06:17:23;101187.97;;;2.08;83.76
69566;BME280;77486;47.192;39.650;2024-03-23T06:19:49;101195.06;;;1.97;84.59
69566;BME280;77486;47.192;39.650;2024-03-23T06:22:15;101188.94;;;1.95;84.62
69566;BME280;77486;47.192;39.650;2024-03-23T06:24:40;101198.47;;;1.96;84.62
69566;BME280;77486;47.192;39.650;2024-03-23T06:27:06;101187.50;;;2.00;84.00
69566;BME280;77486;47.192;39.650;2024-03-23T06:29:31;101184.50;;;2.07;84.26
69566;BME280;77486;47.192;39.650;2024-03-23T06:31:57;101108.44;;;1.74;83.72
69566;BME280;77486;47.192;39.650;2024-03-23T06:34:23;101181.56;;;2.01;83.49
69566;BME280;77486;47.192;39.650;2024-03-23T06:36:49;101187.19;;;2.23;83.85
69566;BME280;77486;47.192;39.650;2024-03-23T06:39:15;101192.44;;;2.10;83.85
69566;BME280;77486;47.192;39.650;2024-03-23T06:41:52;101187.91;;;2.21;83.31
69566;BME280;77486;47.192;39.650;2024-03-23T06:44:18;101180.34;;;2.24;83.08
69566;BME280;77486;47.192;39.650;2024-03-23T06:46:44;101196.03;;;2.27;82.91
69566;BME280;77486;47.192;39.650;2024-03-23T06:49:10;101193.16;;;2.37;82.48
69566;BME280;77486;47.192;39.650;2024-03-23T06:51:35;101198.16;;;2.19;82.58
69566;BME280;77486;47.192;39.650;2024-03-23T06:54:03;101191.91;;;2.16;82.69
69566;BME280;77486;47.192;39.650;2024-03-23T06:56:29;101180.22;;;2.22;83.11
69566;BME280;77486;47.192;39.650;2024-03-23T06:58:55;101186.75;;;2.31;83.03
69566;BME280;77486;47.192;39.650;2024-03-23T07:01:21;101193.88;;;2.20;82.86
69566;BME280;77486;47.192;39.650;2024-03-23T07:03:46;101186.63;;;2.14;83.23
69566;BME280;77486;47.192;39.650;2024-03-23T07:06:12;101191.81;;;2.14;83.25
69566;BME280;77486;47.192;39.650;2024-03-23T07:08:37;101192.19;;;2.20;83.11
69566;BME280;77486;47.192;39.650;2024-03-23T07:11:03;101194.84;;;2.37;83.02
69566;BME280;77486;47.192;39.650;2024-03-23T07:13:30;101183.09;;;2.42;82.87
69566;BME280;77486;47.192;39.650;2024-03-23T07:15:56;101186.22;;;2.21;83.03
69566;BME280;77486;47.192;39.650;2024-03-23T07:18:22;101185.16;;;2.33;82.77
69566;BME280;77486;47.192;39.650;2024-03-23T07:20:57;101181.84;;;2.50;81.99
69566;BME280;77486;47.192;39.650;2024-03-23T07:23:24;101123.28;;;2.21;81.77
69566;BME280;77486;47.192;39.650;2024-03-23T07:26:10;101183.97;;;2.57;81.58
69566;BME280;77486;47.192;39.650;2024-03-23T07:28:35;101182.09;;;2.55;81.49
69566;BME280;77486;47.192;39.650;2024-03-23T07:31:02;101186.00;;;2.63;82.04
69566;BME280;77486;47.192;39.650;2024-03-23T07:33:28;101136.28;;;2.22;82.39
69566;BME280;77486;47.192;39.650;2024-03-23T07:35:53;101178.53;;;2.53;82.17
69566;BME280;77486;47.192;39.650;2024-03-23T07:38:19;101177.81;;;2.70;81.60
69566;BME280;77486;47.192;39.650;2024-03-23T07:40:44;101167.13;;;2.34;82.27
69566;BME280;77486;47.192;39.650;2024-03-23T07:43:10;101175.84;;;2.51;82.14
69566;BME280;77486;47.192;39.650;2024-03-23T07:45:35;101178.34;;;2.64;81.84
69566;BME280;77486;47.192;39.650;2024-03-23T07:48:03;101174.44;;;2.56;82.13
69566;BME280;77486;47.192;39.650;2024-03-23T07:50:29;101169.00;;;2.66;81.75
69566;BME280;77486;47.192;39.650;2024-03-23T07:52:54;101171.16;;;2.90;81.21
69566;BME280;77486;47.192;39.650;2024-03-23T07:55:20;101139.97;;;2.57;81.00
69566;BME280;77486;47.192;39.650;2024-03-23T07:57:46;101164.59;;;2.65;81.80
69566;BME280;77486;47.192;39.650;2024-03-23T08:00:12;101155.81;;;2.93;81.01
69566;BME280;77486;47.192;39.650;2024-03-23T08:02:38;101150.66;;;2.78;80.65
69566;BME280;77486;47.192;39.650;2024-03-23T08:05:04;101157.28;;;2.73;81.24
69566;BME280;77486;47.192;39.650;2024-03-23T08:07:30;101155.81;;;2.93;80.75
69566;BME280;77486;47.192;39.650;2024-03-23T08:09:55;101158.00;;;3.02;80.79
69566;BME280;77486;47.192;39.650;2024-03-23T08:12:21;101158.66;;;2.98;80.78
69566;BME280;77486;47.192;39.650;2024-03-23T08:14:46;101159.38;;;2.95;80.83
69566;BME280;77486;47.192;39.650;2024-03-23T08:17:12;101128.88;;;2.89;80.69
69566;BME280;77486;47.192;39.650;2024-03-23T08:19:37;101149.53;;;3.04;79.98
69566;BME280;77486;47.192;39.650;2024-03-23T08:22:03;101149.81;;;2.94;80.24
69566;BME280;77486;47.192;39.650;2024-03-23T08:24:28;101149.56;;;3.21;79.92
69566;BME280;77486;47.192;39.650;2024-03-23T08:26:55;101152.06;;;2.88;80.06
69566;BME280;77486;47.192;39.650;2024-03-23T08:29:21;101133.38;;;3.25;80.51
69566;BME280;77486;47.192;39.650;2024-03-23T08:31:46;101137.09;;;3.30;79.14
69566;BME280;77486;47.192;39.650;2024-03-23T08:34:12;101137.34;;;3.67;78.29
69566;BME280;77486;47.192;39.650;2024-03-23T08:36:37;101132.09;;;3.33;77.88
69566;BME280;77486;47.192;39.650;2024-03-23T08:39:03;101130.06;;;3.44;78.67
69566;BME280;77486;47.192;39.650;2024-03-23T08:41:28;101130.03;;;3.11;78.77
69566;BME280;77486;47.192;39.650;2024-03-23T08:43:55;101127.66;;;2.99;78.86
69566;BME280;77486;47.192;39.650;2024-03-23T08:46:21;101128.66;;;3.01;79.44
69566;BME280;77486;47.192;39.650;2024-03-23T08:48:46;101131.22;;;3.17;79.02
69566;BME280;77486;47.192;39.650;2024-03-23T08:51:15;101132.81;;;3.47;78.38
69566;BME280;77486;47.192;39.650;2024-03-23T08:53:41;101076.38;;;2.92;78.47
69566;BME280;77486;47.192;39.650;2024-03-23T08:56:08;101121.22;;;3.56;78.06
69566;BME280;77486;47.192;39.650;2024-03-23T08:58:35;101081.94;;;2.83;78.41
69566;BME280;77486;47.192;39.650;2024-03-23T09:01:11;101140.75;;;3.50;78.33
69566;BME280;77486;47.192;39.650;2024-03-23T09:03:38;101133.84;;;3.83;77.15
69566;BME280;77486;47.192;39.650;2024-03-23T09:06:12;101135.97;;;3.74;77.47
69566;BME280;77486;47.192;39.650;2024-03-23T09:08:38;101131.03;;;3.78;77.21
69566;BME280;77486;47.192;39.650;2024-03-23T09:11:10;101132.53;;;3.75;77.26
69566;BME280;77486;47.192;39.650;2024-03-23T09:13:36;101134.66;;;3.82;77.07
69566;BME280;77486;47.192;39.650;2024-03-23T09:16:03;101074.06;;;3.29;76.56
69566;BME280;77486;47.192;39.650;2024-03-23T09:18:32;101137.59;;;3.55;76.79
69566;BME280;77486;47.192;39.650;2024-03-23T09:20:57;101091.28;;;3.45;76.87
69566;BME280;77486;47.192;39.650;2024-03-23T09:23:23;101088.63;;;3.27;77.10
69566;BME280;77486;47.192;39.650;2024-03-23T09:25:48;101142.53;;;3.51;77.24
69566;BME280;77486;47.192;39.650;2024-03-23T09:28:14;101122.22;;;3.58;77.36
69566;BME280;77486;47.192;39.650;2024-03-23T09:30:39;101041.09;;;2.78;78.37
69566;BME280;77486;47.192;39.650;2024-03-23T09:33:11;101124.81;;;3.58;78.39
69566;BME280;77486;47.192;39.650;2024-03-23T09:35:38;101127.28;;;3.73;77.80
69566;BME280;77486;47.192;39.650;2024-03-23T09:38:04;101128.53;;;3.64;77.52
69566;BME280;77486;47.192;39.650;2024-03-23T09:40:29;101125.69;;;3.59;77.99
69566;BME280;77486;47.192;39.650;2024-03-23T09:42:55;101126.50;;;3.58;77.96
69566;BME280;77486;47.192;39.650;2024-03-23T09:45:27;101121.13;;;3.71;77.99
69566;BME280;77486;47.192;39.650;2024-03-23T09:47:54;101125.25;;;3.84;77.45
69566;BME280;77486;47.192;39.650;2024-03-23T09:50:21;101121.53;;;3.95;76.93
69566;BME280;77486;47.192;39.650;2024-03-23T09:52:46;101116.00;;;3.89;76.45
69566;BME280;77486;47.192;39.650;2024-03-23T09:55:12;101117.38;;;3.99;77.06
69566;BME280;77486;47.192;39.650;2024-03-23T09:57:39;101069.03;;;3.83;76.62
69566;BME280;77486;47.192;39.650;2024-03-23T10:00:05;101117.34;;;4.33;76.01
69566;BME280;77486;47.192;39.650;2024-03-23T10:02:31;101107.84;;;4.16;75.42
69566;BME280;77486;47.192;39.650;2024-03-23T10:04:58;101104.66;;;4.03;76.13
69566;BME280;77486;47.192;39.650;2024-03-23T10:07:23;101109.63;;;4.17;75.59
69566;BME280;77486;47.192;39.650;2024-03-23T10:09:49;101062.78;;;3.61;75.92
69566;BME280;77486;47.192;39.650;2024-03-23T10:12:19;101104.69;;;3.71;76.40
69566;BME280;77486;47.192;39.650;2024-03-23T10:14:45;101087.00;;;3.96;76.31
69566;BME280;77486;47.192;39.650;2024-03-23T10:17:14;101099.97;;;3.96;76.43
69566;BME280;77486;47.192;39.650;2024-03-23T10:19:41;101083.97;;;4.23;76.04
69566;BME280;77486;47.192;39.650;2024-03-23T10:22:09;101087.66;;;3.92;75.41
69566;BME280;77486;47.192;39.650;2024-03-23T10:24:34;101099.72;;;3.92;76.35
69566;BME280;77486;47.192;39.650;2024-03-23T10:27:00;101093.59;;;4.07;76.07
69566;BME280;77486;47.192;39.650;2024-03-23T10:29:25;101092.44;;;4.19;75.63
69566;BME280;77486;47.192;39.650;2024-03-23T10:31:53;101088.97;;;4.36;74.85
69566;BME280;77486;47.192;39.650;2024-03-23T10:34:26;101098.75;;;4.60;74.87
69566;BME280;77486;47.192;39.650;2024-03-23T10:36:53;101086.53;;;4.39;74.27
69566;BME280;77486;47.192;39.650;2024-03-23T10:39:20;101089.09;;;4.21;74.95
69566;BME280;77486;47.192;39.650;2024-03-23T10:41:49;101081.03;;;4.33;75.42
69566;BME280;77486;47.192;39.650;2024-03-23T10:44:18;101093.03;;;4.67;74.32
69566;BME280;77486;47.192;39.650;2024-03-23T10:46:45;101086.75;;;4.62;73.41
69566;BME280;77486;47.192;39.650;2024-03-23T10:49:10;101095.19;;;4.58;73.33
69566;BME280;77486;47.192;39.650;2024-03-23T10:51:37;101086.66;;;4.24;74.15
69566;BME280;77486;47.192;39.650;2024-03-23T10:54:04;101067.31;;;4.36;74.65
69566;BME280;77486;47.192;39.650;2024-03-23T10:56:34;101086.06;;;4.84;73.76
69566;BME280;77486;47.192;39.650;2024-03-23T10:59:02;101076.78;;;5.08;72.61
69566;BME280;77486;47.192;39.650;2024-03-23T11:01:32;101078.72;;;5.12;72.53
69566;BME280;77486;47.192;39.650;2024-03-23T11:03:58;101077.94;;;5.15;71.52
69566;BME280;77486;47.192;39.650;2024-03-23T11:06:38;101078.72;;;5.12;71.78
69566;BME280;77486;47.192;39.650;2024-03-23T11:09:40;101081.16;;;5.09;71.84
69566;BME280;77486;47.192;39.650;2024-03-23T11:14:47;101084.00;;;4.59;71.80
69566;BME280;77486;47.192;39.650;2024-03-23T11:17:19;101073.81;;;4.81;72.01
69566;BME280;77486;47.192;39.650;2024-03-23T11:20:02;101073.22;;;4.69;72.65
69566;BME280;77486;47.192;39.650;2024-03-23T11:25:12;101060.88;;;4.45;73.59
69566;BME280;77486;47.192;39.650;2024-03-23T11:27:37;101065.69;;;4.56;73.56
69566;BME280;77486;47.192;39.650;2024-03-23T11:30:13;101060.03;;;4.64;73.40
69566;BME280;77486;47.192;39.650;2024-03-23T11:32:41;101072.34;;;4.50;73.65
69566;BME280;77486;47.192;39.650;2024-03-23T11:35:07;100986.25;;;4.22;73.09
69566;BME280;77486;47.192;39.650;2024-03-23T11:37:38;101063.66;;;4.68;72.89
69566;BME280;77486;47.192;39.650;2024-03-23T11:40:17;101062.97;;;4.72;73.07
69566;BME280;77486;47.192;39.650;2024-03-23T11:42:43;100993.94;;;4.38;72.52
69566;BME280;77486;47.192;39.650;2024-03-23T11:45:09;101052.69;;;4.73;72.61
69566;BME280;77486;47.192;39.650;2024-03-23T11:47:35;101056.16;;;4.74;72.09
69566;BME280;77486;47.192;39.650;2024-03-23T11:50:00;101063.09;;;4.56;72.85
69566;BME280;77486;47.192;39.650;2024-03-23T11:52:26;101054.53;;;4.76;72.55
69566;BME280;77486;47.192;39.650;2024-03-23T11:54:51;101054.47;;;4.57;72.65
69566;BME280;77486;47.192;39.650;2024-03-23T11:57:28;101052.69;;;4.73;73.15
69566;BME280;77486;47.192;39.650;2024-03-23T11:59:53;101046.69;;;4.94;72.22
69566;BME280;77486;47.192;39.650;2024-03-23T12:02:19;101050.16;;;4.75;72.52
69566;BME280;77486;47.192;39.650;2024-03-23T12:04:44;101040.88;;;4.80;72.56
69566;BME280;77486;47.192;39.650;2024-03-23T12:07:20;101051.53;;;4.86;72.33
69566;BME280;77486;47.192;39.650;2024-03-23T12:09:48;101038.56;;;5.06;71.81
69566;BME280;77486;47.192;39.650;2024-03-23T12:12:27;101004.28;;;5.13;71.50
69566;BME280;77486;47.192;39.650;2024-03-23T12:15:06;101035.72;;;5.19;70.78
69566;BME280;77486;47.192;39.650;2024-03-23T12:17:32;101039.41;;;5.24;70.99
69566;BME280;77486;47.192;39.650;2024-03-23T12:19:58;101044.59;;;5.05;71.38
69566;BME280;77486;47.192;39.650;2024-03-23T12:22:24;101025.41;;;5.01;71.66
69566;BME280;77486;47.192;39.650;2024-03-23T12:24:50;100969.00;;;4.79;71.33
69566;BME280;77486;47.192;39.650;2024-03-23T12:27:16;101033.13;;;5.19;71.62
69566;BME280;77486;47.192;39.650;2024-03-23T12:29:43;101042.16;;;5.27;71.47
69566;BME280;77486;47.192;39.650;2024-03-23T12:32:11;101034.75;;;5.36;70.59
69566;BME280;77486;47.192;39.650;2024-03-23T12:34:36;101033.13;;;5.38;70.21
69566;BME280;77486;47.192;39.650;2024-03-23T12:37:02;101018.75;;;5.27;70.44
69566;BME280;77486;47.192;39.650;2024-03-23T12:39:27;101023.25;;;5.12;71.33
69566;BME280;77486;47.192;39.650;2024-03-23T12:41:53;101029.56;;;5.36;70.79
69566;BME280;77486;47.192;39.650;2024-03-23T12:44:18;101008.91;;;5.20;70.99
69566;BME280;77486;47.192;39.650;2024-03-23T12:46:44;101032.22;;;5.38;70.43
69566;BME280;77486;47.192;39.650;2024-03-23T12:49:10;101035.72;;;5.38;70.07
69566;BME280;77486;47.192;39.650;2024-03-23T12:51:36;101020.53;;;5.28;70.48
69566;BME280;77486;47.192;39.650;2024-03-23T12:54:02;101030.66;;;5.41;70.40
69566;BME280;77486;47.192;39.650;2024-03-23T12:56:28;101032.53;;;5.26;71.25
69566;BME280;77486;47.192;39.650;2024-03-23T12:58:54;101024.22;;;5.33;71.03
69566;BME280;77486;47.192;39.650;2024-03-23T13:01:20;101027.16;;;5.41;71.19
69566;BME280;77486;47.192;39.650;2024-03-23T13:03:47;101031.56;;;5.43;71.01
69566;BME280;77486;47.192;39.650;2024-03-23T13:06:12;101033.13;;;5.19;71.10
69566;BME280;77486;47.192;39.650;2024-03-23T13:08:38;101033.25;;;5.41;70.81
69566;BME280;77486;47.192;39.650;2024-03-23T13:11:05;101023.09;;;5.48;70.57
69566;BME280;77486;47.192;39.650;2024-03-23T13:13:31;101027.91;;;5.38;71.30
69566;BME280;77486;47.192;39.650;2024-03-23T13:15:58;101022.72;;;5.38;70.95
69566;BME280;77486;47.192;39.650;2024-03-23T13:18:24;101024.56;;;5.41;71.35
69566;BME280;77486;47.192;39.650;2024-03-23T13:20:49;101019.19;;;5.57;70.22
69566;BME280;77486;47.192;39.650;2024-03-23T13:23:15;101027.28;;;5.44;71.14
69566;BME280;77486;47.192;39.650;2024-03-23T13:25:40;101023.78;;;5.43;70.78
69566;BME280;77486;47.192;39.650;2024-03-23T13:28:06;101020.25;;;5.22;70.99
69566;BME280;77486;47.192;39.650;2024-03-23T13:30:31;101011.28;;;5.35;71.16
69566;BME280;77486;47.192;39.650;2024-03-23T13:32:57;101024.88;;;5.49;70.86
69566;BME280;77486;47.192;39.650;2024-03-23T13:35:22;101021.84;;;5.59;70.41
69566;BME280;77486;47.192;39.650;2024-03-23T13:37:48;101019.38;;;5.41;70.60
69566;BME280;77486;47.192;39.650;2024-03-23T13:40:14;101026.81;;;5.53;70.83
69566;BME280;77486;47.192;39.650;2024-03-23T13:42:39;101019.00;;;5.53;70.78
69566;BME280;77486;47.192;39.650;2024-03-23T13:45:05;101021.06;;;5.40;70.54